sensor_id;sensor_type;location;lat;lon;timestamp;P1;durP1;ratioP1;P2;durP2;ratioP2
11596;SDS011;5854;48.072;16.286;2023-02-28T00:01:06;10.15;;;8.57;;
11596;SDS011;5854;48.072;16.286;2023-02-28T00:03:47;14.70;;;9.30;;
11596;SDS011;5854;48.072;16.286;2023-02-28T00:06:18;17.75;;;9.13;;
11596;SDS011;5854;48.072;16.286;2023-02-28T00:08:54;16.40;;;8.55;;
11596;SDS011;5854;48.072;16.286;2023-02-28T00:11:33;16.05;;;10.10;;
11596;SDS011;5854;48.072;16.286;2023-02-28T00:14:01;15.00;;;9.45;;
11596;SDS011;5854;48.072;16.286;2023-02-28T00:16:29;14.68;;;9.77;;
11596;SDS011;5854;48.072;16.286;2023-02-28T00:18:56;10.65;;;8.48;;
11596;SDS011;5854;48.072;16.286;2023-02-28T00:21:23;15.77;;;8.57;;
11596;SDS011;5854;48.072;16.286;2023-02-28T00:23:50;15.23;;;9.48;;
11596;SDS011;5854;48.072;16.286;2023-02-28T00:26:18;15.60;;;8.90;;
11596;SDS011;5854;48.072;16.286;2023-02-28T00:28:45;19.00;;;10.00;;
11596;SDS011;5854;48.072;16.286;2023-02-28T00:31:14;14.90;;;9.30;;
11596;SDS011;5854;48.072;16.286;2023-02-28T00:33:41;15.43;;;9.77;;
11596;SDS011;5854;48.072;16.286;2023-02-28T00:36:09;16.88;;;10.20;;
11596;SDS011;5854;48.072;16.286;2023-02-28T00:38:37;11.75;;;8.50;;
11596;SDS011;5854;48.072;16.286;2023-02-28T00:41:05;12.23;;;8.45;;
11596;SDS011;5854;48.072;16.286;2023-02-28T00:43:33;16.17;;;9.43;;
11596;SDS011;5854;48.072;16.286;2023-02-28T00:46:03;13.00;;;8.48;;
11596;SDS011;5854;48.072;16.286;2023-02-28T00:48:32;15.75;;;9.82;;
11596;SDS011;5854;48.072;16.286;2023-02-28T00:50:59;13.35;;;9.68;;
11596;SDS011;5854;48.072;16.286;2023-02-28T00:53:27;10.82;;;9.10;;
11596;SDS011;5854;48.072;16.286;2023-02-28T00:55:55;11.98;;;8.60;;
11596;SDS011;5854;48.072;16.286;2023-02-28T00:58:23;11.18;;;8.32;;
11596;SDS011;5854;48.072;16.286;2023-02-28T01:00:51;12.90;;;8.95;;
11596;SDS011;5854;48.072;16.286;2023-02-28T01:03:19;13.57;;;9.55;;
11596;SDS011;5854;48.072;16.286;2023-02-28T01:05:48;14.50;;;9.18;;
11596;SDS011;5854;48.072;16.286;2023-02-28T01:08:18;12.25;;;8.68;;
11596;SDS011;5854;48.072;16.286;2023-02-28T01:10:45;21.00;;;9.32;;
11596;SDS011;5854;48.072;16.286;2023-02-28T01:13:12;12.93;;;9.40;;
11596;SDS011;5854;48.072;16.286;2023-02-28T01:15:41;11.00;;;9.82;;
11596;SDS011;5854;48.072;16.286;2023-02-28T01:18:12;10.70;;;9.15;;
11596;SDS011;5854;48.072;16.286;2023-02-28T01:20:39;10.48;;;8.73;;
11596;SDS011;5854;48.072;16.286;2023-02-28T01:23:08;19.23;;;9.05;;
11596;SDS011;5854;48.072;16.286;2023-02-28T01:25:35;11.80;;;9.45;;
11596;SDS011;5854;48.072;16.286;2023-02-28T01:28:03;16.42;;;10.30;;
11596;SDS011;5854;48.072;16.286;2023-02-28T01:30:31;12.68;;;9.38;;
11596;SDS011;5854;48.072;16.286;2023-02-28T01:32:59;17.23;;;10.30;;
11596;SDS011;5854;48.072;16.286;2023-02-28T01:35:26;19.25;;;10.80;;
11596;SDS011;5854;48.072;16.286;2023-02-28T01:37:53;14.65;;;9.70;;
11596;SDS011;5854;48.072;16.286;2023-02-28T01:40:22;12.43;;;9.35;;
11596;SDS011;5854;48.072;16.286;2023-02-28T01:42:49;12.18;;;8.93;;
11596;SDS011;5854;48.072;16.286;2023-02-28T01:45:19;12.95;;;9.77;;
11596;SDS011;5854;48.072;16.286;2023-02-28T01:47:50;16.45;;;10.10;;
11596;SDS011;5854;48.072;16.286;2023-02-28T01:50:23;13.77;;;8.80;;
11596;SDS011;5854;48.072;16.286;2023-02-28T01:52:55;13.80;;;9.40;;
11596;SDS011;5854;48.072;16.286;2023-02-28T01:57:56;10.65;;;8.82;;
11596;SDS011;5854;48.072;16.286;2023-02-28T02:00:27;15.02;;;10.00;;
11596;SDS011;5854;48.072;16.286;2023-02-28T02:02:57;11.93;;;9.35;;
11596;SDS011;5854;48.072;16.286;2023-02-28T02:05:28;15.82;;;8.75;;
11596;SDS011;5854;48.072;16.286;2023-02-28T02:07:57;13.57;;;8.73;;
11596;SDS011;5854;48.072;16.286;2023-02-28T02:10:32;13.52;;;9.95;;
11596;SDS011;5854;48.072;16.286;2023-02-28T02:13:08;11.85;;;8.70;;
11596;SDS011;5854;48.072;16.286;2023-02-28T02:15:53;13.93;;;8.45;;
11596;SDS011;5854;48.072;16.286;2023-02-28T02:18:32;13.88;;;8.68;;
11596;SDS011;5854;48.072;16.286;2023-02-28T02:21:13;13.13;;;8.98;;
11596;SDS011;5854;48.072;16.286;2023-02-28T02:24:26;13.10;;;9.63;;
11596;SDS011;5854;48.072;16.286;2023-02-28T02:27:35;14.70;;;9.40;;
11596;SDS011;5854;48.072;16.286;2023-02-28T02:30:42;11.02;;;9.48;;
11596;SDS011;5854;48.072;16.286;2023-02-28T02:33:41;15.52;;;8.70;;
11596;SDS011;5854;48.072;16.286;2023-02-28T02:36:35;12.40;;;9.48;;
11596;SDS011;5854;48.072;16.286;2023-02-28T02:39:06;16.95;;;10.57;;
11596;SDS011;5854;48.072;16.286;2023-02-28T02:41:40;13.38;;;9.38;;
11596;SDS011;5854;48.072;16.286;2023-02-28T02:44:18;13.90;;;9.65;;
11596;SDS011;5854;48.072;16.286;2023-02-28T02:46:50;15.95;;;10.40;;
11596;SDS011;5854;48.072;16.286;2023-02-28T02:49:27;14.93;;;10.18;;
11596;SDS011;5854;48.072;16.286;2023-02-28T02:52:00;14.73;;;9.45;;
11596;SDS011;5854;48.072;16.286;2023-02-28T02:54:31;10.05;;;9.00;;
11596;SDS011;5854;48.072;16.286;2023-02-28T02:57:03;15.85;;;9.68;;
11596;SDS011;5854;48.072;16.286;2023-02-28T02:59:35;18.50;;;10.57;;
11596;SDS011;5854;48.072;16.286;2023-02-28T03:02:06;14.73;;;11.25;;
11596;SDS011;5854;48.072;16.286;2023-02-28T03:04:38;17.08;;;8.98;;
11596;SDS011;5854;48.072;16.286;2023-02-28T03:07:09;12.93;;;10.23;;
11596;SDS011;5854;48.072;16.286;2023-02-28T03:09:37;12.70;;;8.65;;
11596;SDS011;5854;48.072;16.286;2023-02-28T03:12:04;18.58;;;9.60;;
11596;SDS011;5854;48.072;16.286;2023-02-28T03:14:44;13.40;;;9.70;;
11596;SDS011;5854;48.072;16.286;2023-02-28T03:17:25;12.18;;;9.75;;
11596;SDS011;5854;48.072;16.286;2023-02-28T03:20:10;14.68;;;10.70;;
11596;SDS011;5854;48.072;16.286;2023-02-28T03:22:51;17.02;;;10.55;;
11596;SDS011;5854;48.072;16.286;2023-02-28T03:25:29;13.50;;;10.30;;
11596;SDS011;5854;48.072;16.286;2023-02-28T03:28:06;13.27;;;10.15;;
11596;SDS011;5854;48.072;16.286;2023-02-28T03:30:42;17.63;;;10.60;;
11596;SDS011;5854;48.072;16.286;2023-02-28T03:33:19;14.73;;;9.88;;
11596;SDS011;5854;48.072;16.286;2023-02-28T03:35:52;15.10;;;9.95;;
11596;SDS011;5854;48.072;16.286;2023-02-28T03:38:22;13.82;;;10.07;;
11596;SDS011;5854;48.072;16.286;2023-02-28T03:40:57;15.77;;;10.10;;
11596;SDS011;5854;48.072;16.286;2023-02-28T03:43:32;15.38;;;10.02;;
11596;SDS011;5854;48.072;16.286;2023-02-28T03:46:06;14.35;;;10.07;;
11596;SDS011;5854;48.072;16.286;2023-02-28T03:48:38;13.55;;;10.13;;
11596;SDS011;5854;48.072;16.286;2023-02-28T03:51:10;11.85;;;9.55;;
11596;SDS011;5854;48.072;16.286;2023-02-28T03:53:42;14.30;;;9.10;;
11596;SDS011;5854;48.072;16.286;2023-02-28T03:56:14;15.88;;;10.00;;
11596;SDS011;5854;48.072;16.286;2023-02-28T03:58:47;19.75;;;10.15;;
11596;SDS011;5854;48.072;16.286;2023-02-28T04:01:20;16.38;;;10.73;;
11596;SDS011;5854;48.072;16.286;2023-02-28T04:03:53;14.10;;;9.90;;
11596;SDS011;5854;48.072;16.286;2023-02-28T04:06:22;13.85;;;9.98;;
11596;SDS011;5854;48.072;16.286;2023-02-28T04:08:50;17.77;;;11.65;;
11596;SDS011;5854;48.072;16.286;2023-02-28T04:11:22;20.60;;;11.95;;
11596;SDS011;5854;48.072;16.286;2023-02-28T04:13:53;15.10;;;11.13;;
11596;SDS011;5854;48.072;16.286;2023-02-28T04:16:20;19.83;;;11.30;;
11596;SDS011;5854;48.072;16.286;2023-02-28T04:18:47;14.38;;;10.52;;
11596;SDS011;5854;48.072;16.286;2023-02-28T04:21:14;18.30;;;11.85;;
11596;SDS011;5854;48.072;16.286;2023-02-28T04:23:47;16.52;;;11.13;;
11596;SDS011;5854;48.072;16.286;2023-02-28T04:26:14;13.68;;;10.23;;
11596;SDS011;5854;48.072;16.286;2023-02-28T04:28:41;19.88;;;10.77;;
11596;SDS011;5854;48.072;16.286;2023-02-28T04:31:08;15.13;;;10.68;;
11596;SDS011;5854;48.072;16.286;2023-02-28T04:33:35;14.38;;;9.63;;
11596;SDS011;5854;48.072;16.286;2023-02-28T04:36:03;12.98;;;10.23;;
11596;SDS011;5854;48.072;16.286;2023-02-28T04:38:34;15.80;;;11.25;;
11596;SDS011;5854;48.072;16.286;2023-02-28T04:41:04;19.83;;;10.38;;
11596;SDS011;5854;48.072;16.286;2023-02-28T04:43:32;14.35;;;9.80;;
11596;SDS011;5854;48.072;16.286;2023-02-28T04:46:00;13.48;;;10.00;;
11596;SDS011;5854;48.072;16.286;2023-02-28T04:48:31;14.05;;;10.57;;
11596;SDS011;5854;48.072;16.286;2023-02-28T04:51:00;16.73;;;10.32;;
11596;SDS011;5854;48.072;16.286;2023-02-28T04:53:28;12.50;;;10.50;;
11596;SDS011;5854;48.072;16.286;2023-02-28T04:55:55;15.40;;;9.63;;
11596;SDS011;5854;48.072;16.286;2023-02-28T04:58:24;17.23;;;11.20;;
11596;SDS011;5854;48.072;16.286;2023-02-28T05:00:51;13.27;;;10.75;;
11596;SDS011;5854;48.072;16.286;2023-02-28T05:03:27;19.88;;;11.05;;
11596;SDS011;5854;48.072;16.286;2023-02-28T05:05:54;15.23;;;11.02;;
11596;SDS011;5854;48.072;16.286;2023-02-28T05:08:21;16.55;;;11.30;;
11596;SDS011;5854;48.072;16.286;2023-02-28T05:10:48;15.95;;;11.10;;
11596;SDS011;5854;48.072;16.286;2023-02-28T05:13:15;15.27;;;10.82;;
11596;SDS011;5854;48.072;16.286;2023-02-28T05:15:44;16.75;;;10.52;;
11596;SDS011;5854;48.072;16.286;2023-02-28T05:18:11;16.55;;;10.50;;
11596;SDS011;5854;48.072;16.286;2023-02-28T05:20:38;15.80;;;11.32;;
11596;SDS011;5854;48.072;16.286;2023-02-28T05:23:05;17.30;;;11.50;;
11596;SDS011;5854;48.072;16.286;2023-02-28T05:25:34;14.93;;;10.77;;
11596;SDS011;5854;48.072;16.286;2023-02-28T05:28:01;16.08;;;10.60;;
11596;SDS011;5854;48.072;16.286;2023-02-28T05:30:28;17.77;;;11.20;;
11596;SDS011;5854;48.072;16.286;2023-02-28T05:32:58;16.77;;;10.85;;
11596;SDS011;5854;48.072;16.286;2023-02-28T05:35:25;15.45;;;10.52;;
11596;SDS011;5854;48.072;16.286;2023-02-28T05:37:53;15.77;;;10.75;;
11596;SDS011;5854;48.072;16.286;2023-02-28T05:40:20;15.40;;;10.73;;
11596;SDS011;5854;48.072;16.286;2023-02-28T05:42:55;15.82;;;10.00;;
11596;SDS011;5854;48.072;16.286;2023-02-28T05:45:22;16.55;;;11.20;;
11596;SDS011;5854;48.072;16.286;2023-02-28T05:47:54;15.30;;;10.63;;
11596;SDS011;5854;48.072;16.286;2023-02-28T05:50:26;18.40;;;10.32;;
11596;SDS011;5854;48.072;16.286;2023-02-28T05:52:53;17.13;;;11.55;;
11596;SDS011;5854;48.072;16.286;2023-02-28T05:55:20;15.07;;;11.30;;
11596;SDS011;5854;48.072;16.286;2023-02-28T05:57:48;20.35;;;10.68;;
11596;SDS011;5854;48.072;16.286;2023-02-28T06:07:43;19.33;;;11.52;;
11596;SDS011;5854;48.072;16.286;2023-02-28T06:13:08;19.15;;;12.15;;
11596;SDS011;5854;48.072;16.286;2023-02-28T06:15:40;18.50;;;12.63;;
11596;SDS011;5854;48.072;16.286;2023-02-28T06:18:25;20.42;;;12.55;;
11596;SDS011;5854;48.072;16.286;2023-02-28T06:20:54;17.92;;;11.55;;
11596;SDS011;5854;48.072;16.286;2023-02-28T06:23:21;13.93;;;10.40;;
11596;SDS011;5854;48.072;16.286;2023-02-28T06:25:48;16.23;;;11.65;;
11596;SDS011;5854;48.072;16.286;2023-02-28T06:28:16;20.00;;;12.63;;
11596;SDS011;5854;48.072;16.286;2023-02-28T06:30:43;23.25;;;11.40;;
11596;SDS011;5854;48.072;16.286;2023-02-28T06:33:10;17.17;;;11.57;;
11596;SDS011;5854;48.072;16.286;2023-02-28T06:35:37;20.42;;;12.82;;
11596;SDS011;5854;48.072;16.286;2023-02-28T06:38:05;18.55;;;12.75;;
11596;SDS011;5854;48.072;16.286;2023-02-28T06:40:32;19.88;;;12.70;;
11596;SDS011;5854;48.072;16.286;2023-02-28T06:43:00;21.55;;;12.63;;
11596;SDS011;5854;48.072;16.286;2023-02-28T06:45:28;18.83;;;13.27;;
11596;SDS011;5854;48.072;16.286;2023-02-28T06:47:55;23.15;;;14.38;;
11596;SDS011;5854;48.072;16.286;2023-02-28T06:50:23;15.82;;;12.40;;
11596;SDS011;5854;48.072;16.286;2023-02-28T06:52:50;21.63;;;13.57;;
11596;SDS011;5854;48.072;16.286;2023-02-28T06:55:20;21.05;;;13.15;;
11596;SDS011;5854;48.072;16.286;2023-02-28T06:57:47;18.17;;;12.68;;
11596;SDS011;5854;48.072;16.286;2023-02-28T07:00:15;22.35;;;14.75;;
11596;SDS011;5854;48.072;16.286;2023-02-28T07:02:43;24.35;;;13.23;;
11596;SDS011;5854;48.072;16.286;2023-02-28T07:05:10;22.70;;;13.95;;
11596;SDS011;5854;48.072;16.286;2023-02-28T07:07:37;23.60;;;13.98;;
11596;SDS011;5854;48.072;16.286;2023-02-28T07:10:09;26.73;;;13.67;;
11596;SDS011;5854;48.072;16.286;2023-02-28T07:12:39;17.55;;;13.38;;
11596;SDS011;5854;48.072;16.286;2023-02-28T07:15:07;22.80;;;13.52;;
11596;SDS011;5854;48.072;16.286;2023-02-28T07:17:35;23.23;;;13.52;;
11596;SDS011;5854;48.072;16.286;2023-02-28T07:20:02;21.85;;;13.43;;
11596;SDS011;5854;48.072;16.286;2023-02-28T07:22:30;14.98;;;13.10;;
11596;SDS011;5854;48.072;16.286;2023-02-28T07:24:57;16.85;;;12.93;;
11596;SDS011;5854;48.072;16.286;2023-02-28T07:27:25;15.52;;;13.10;;
11596;SDS011;5854;48.072;16.286;2023-02-28T07:29:53;20.08;;;13.90;;
11596;SDS011;5854;48.072;16.286;2023-02-28T07:32:20;21.17;;;13.73;;
11596;SDS011;5854;48.072;16.286;2023-02-28T07:34:48;23.20;;;13.50;;
11596;SDS011;5854;48.072;16.286;2023-02-28T07:37:15;20.52;;;14.30;;
11596;SDS011;5854;48.072;16.286;2023-02-28T07:39:42;21.50;;;14.63;;
11596;SDS011;5854;48.072;16.286;2023-02-28T07:42:09;27.05;;;14.43;;
11596;SDS011;5854;48.072;16.286;2023-02-28T07:44:37;20.33;;;14.43;;
11596;SDS011;5854;48.072;16.286;2023-02-28T07:47:07;16.80;;;12.65;;
11596;SDS011;5854;48.072;16.286;2023-02-28T07:49:34;19.17;;;14.10;;
11596;SDS011;5854;48.072;16.286;2023-02-28T07:52:02;21.48;;;12.73;;
11596;SDS011;5854;48.072;16.286;2023-02-28T07:54:29;19.02;;;14.18;;
11596;SDS011;5854;48.072;16.286;2023-02-28T07:56:56;14.48;;;11.73;;
11596;SDS011;5854;48.072;16.286;2023-02-28T07:59:24;18.38;;;13.10;;
11596;SDS011;5854;48.072;16.286;2023-02-28T08:01:51;21.63;;;12.90;;
11596;SDS011;5854;48.072;16.286;2023-02-28T08:04:19;17.67;;;14.07;;
11596;SDS011;5854;48.072;16.286;2023-02-28T08:06:46;20.60;;;13.43;;
11596;SDS011;5854;48.072;16.286;2023-02-28T08:09:13;21.23;;;13.60;;
11596;SDS011;5854;48.072;16.286;2023-02-28T08:11:40;19.05;;;13.73;;
11596;SDS011;5854;48.072;16.286;2023-02-28T08:14:07;18.38;;;13.88;;
11596;SDS011;5854;48.072;16.286;2023-02-28T08:16:35;17.08;;;13.55;;
11596;SDS011;5854;48.072;16.286;2023-02-28T08:19:03;23.30;;;14.30;;
11596;SDS011;5854;48.072;16.286;2023-02-28T08:21:32;20.83;;;14.98;;
11596;SDS011;5854;48.072;16.286;2023-02-28T08:23:59;32.30;;;22.63;;
11596;SDS011;5854;48.072;16.286;2023-02-28T08:26:30;22.40;;;14.73;;
11596;SDS011;5854;48.072;16.286;2023-02-28T08:29:00;20.98;;;13.07;;
11596;SDS011;5854;48.072;16.286;2023-02-28T08:31:27;20.58;;;14.73;;
11596;SDS011;5854;48.072;16.286;2023-02-28T08:33:54;20.73;;;10.88;;
11596;SDS011;5854;48.072;16.286;2023-02-28T08:36:23;29.42;;;14.02;;
11596;SDS011;5854;48.072;16.286;2023-02-28T08:38:54;30.50;;;14.85;;
11596;SDS011;5854;48.072;16.286;2023-02-28T08:41:24;20.53;;;13.40;;
11596;SDS011;5854;48.072;16.286;2023-02-28T08:43:52;21.30;;;13.93;;
11596;SDS011;5854;48.072;16.286;2023-02-28T08:46:19;17.08;;;11.98;;
11596;SDS011;5854;48.072;16.286;2023-02-28T08:48:47;17.73;;;13.90;;
11596;SDS011;5854;48.072;16.286;2023-02-28T08:51:18;13.38;;;11.55;;
11596;SDS011;5854;48.072;16.286;2023-02-28T08:53:51;21.67;;;15.55;;
11596;SDS011;5854;48.072;16.286;2023-02-28T08:56:20;22.38;;;14.82;;
11596;SDS011;5854;48.072;16.286;2023-02-28T08:58:48;15.38;;;10.55;;
11596;SDS011;5854;48.072;16.286;2023-02-28T09:01:17;17.95;;;13.43;;
11596;SDS011;5854;48.072;16.286;2023-02-28T09:03:47;18.45;;;12.77;;
11596;SDS011;5854;48.072;16.286;2023-02-28T09:06:17;23.70;;;16.00;;
11596;SDS011;5854;48.072;16.286;2023-02-28T09:08:46;17.40;;;12.23;;
11596;SDS011;5854;48.072;16.286;2023-02-28T09:11:13;17.45;;;13.15;;
11596;SDS011;5854;48.072;16.286;2023-02-28T09:13:42;17.98;;;13.27;;
11596;SDS011;5854;48.072;16.286;2023-02-28T09:16:10;18.80;;;13.38;;
11596;SDS011;5854;48.072;16.286;2023-02-28T09:18:40;14.05;;;10.57;;
11596;SDS011;5854;48.072;16.286;2023-02-28T09:21:07;19.52;;;13.77;;
11596;SDS011;5854;48.072;16.286;2023-02-28T09:23:38;16.23;;;11.75;;
11596;SDS011;5854;48.072;16.286;2023-02-28T09:26:07;17.50;;;13.82;;
11596;SDS011;5854;48.072;16.286;2023-02-28T09:28:39;17.83;;;13.65;;
11596;SDS011;5854;48.072;16.286;2023-02-28T09:31:10;17.70;;;13.73;;
11596;SDS011;5854;48.072;16.286;2023-02-28T09:33:45;15.48;;;11.50;;
11596;SDS011;5854;48.072;16.286;2023-02-28T09:36:12;10.40;;;8.15;;
11596;SDS011;5854;48.072;16.286;2023-02-28T09:38:40;17.90;;;14.05;;
11596;SDS011;5854;48.072;16.286;2023-02-28T09:41:10;19.15;;;13.40;;
11596;SDS011;5854;48.072;16.286;2023-02-28T09:43:43;20.70;;;14.45;;
11596;SDS011;5854;48.072;16.286;2023-02-28T09:46:20;21.70;;;14.35;;
11596;SDS011;5854;48.072;16.286;2023-02-28T09:49:02;21.52;;;13.25;;
11596;SDS011;5854;48.072;16.286;2023-02-28T09:51:36;20.55;;;14.60;;
11596;SDS011;5854;48.072;16.286;2023-02-28T09:54:14;25.35;;;15.25;;
11596;SDS011;5854;48.072;16.286;2023-02-28T09:56:44;18.40;;;14.02;;
11596;SDS011;5854;48.072;16.286;2023-02-28T09:59:23;5.72;;;5.07;;
11596;SDS011;5854;48.072;16.286;2023-02-28T10:02:11;21.15;;;16.30;;
11596;SDS011;5854;48.072;16.286;2023-02-28T10:05:00;20.75;;;13.05;;
11596;SDS011;5854;48.072;16.286;2023-02-28T10:07:37;16.10;;;11.65;;
11596;SDS011;5854;48.072;16.286;2023-02-28T10:10:26;23.65;;;15.10;;
11596;SDS011;5854;48.072;16.286;2023-02-28T10:12:59;19.02;;;14.40;;
11596;SDS011;5854;48.072;16.286;2023-02-28T10:15:31;13.95;;;8.07;;
11596;SDS011;5854;48.072;16.286;2023-02-28T10:18:02;18.13;;;13.82;;
11596;SDS011;5854;48.072;16.286;2023-02-28T10:20:32;23.65;;;14.32;;
11596;SDS011;5854;48.072;16.286;2023-02-28T10:23:08;16.50;;;13.25;;
11596;SDS011;5854;48.072;16.286;2023-02-28T10:25:40;21.92;;;15.43;;
11596;SDS011;5854;48.072;16.286;2023-02-28T10:28:13;19.38;;;15.02;;
11596;SDS011;5854;48.072;16.286;2023-02-28T10:30:45;18.65;;;14.48;;
11596;SDS011;5854;48.072;16.286;2023-02-28T10:35:46;17.00;;;11.65;;
11596;SDS011;5854;48.072;16.286;2023-02-28T10:38:19;28.15;;;15.50;;
11596;SDS011;5854;48.072;16.286;2023-02-28T10:40:48;18.35;;;14.05;;
11596;SDS011;5854;48.072;16.286;2023-02-28T10:43:19;18.77;;;14.82;;
11596;SDS011;5854;48.072;16.286;2023-02-28T10:45:55;15.57;;;8.82;;
11596;SDS011;5854;48.072;16.286;2023-02-28T10:48:27;15.32;;;10.93;;
11596;SDS011;5854;48.072;16.286;2023-02-28T10:50:59;15.60;;;13.50;;
11596;SDS011;5854;48.072;16.286;2023-02-28T10:53:30;16.88;;;12.60;;
11596;SDS011;5854;48.072;16.286;2023-02-28T10:56:01;20.50;;;13.85;;
11596;SDS011;5854;48.072;16.286;2023-02-28T10:58:34;18.25;;;13.05;;
11596;SDS011;5854;48.072;16.286;2023-02-28T11:01:17;18.98;;;12.45;;
11596;SDS011;5854;48.072;16.286;2023-02-28T11:03:49;16.33;;;13.75;;
11596;SDS011;5854;48.072;16.286;2023-02-28T11:06:18;17.20;;;13.50;;
11596;SDS011;5854;48.072;16.286;2023-02-28T11:08:49;14.30;;;10.05;;
11596;SDS011;5854;48.072;16.286;2023-02-28T11:11:19;20.88;;;13.80;;
11596;SDS011;5854;48.072;16.286;2023-02-28T11:13:50;19.77;;;13.82;;
11596;SDS011;5854;48.072;16.286;2023-02-28T11:16:22;17.02;;;13.10;;
11596;SDS011;5854;48.072;16.286;2023-02-28T11:19:00;25.30;;;15.82;;
11596;SDS011;5854;48.072;16.286;2023-02-28T11:21:28;18.23;;;14.73;;
11596;SDS011;5854;48.072;16.286;2023-02-28T11:24:00;19.05;;;14.45;;
11596;SDS011;5854;48.072;16.286;2023-02-28T11:26:35;19.63;;;13.93;;
11596;SDS011;5854;48.072;16.286;2023-02-28T11:29:17;14.25;;;12.30;;
11596;SDS011;5854;48.072;16.286;2023-02-28T11:32:02;21.33;;;11.75;;
11596;SDS011;5854;48.072;16.286;2023-02-28T11:34:36;18.90;;;12.40;;
11596;SDS011;5854;48.072;16.286;2023-02-28T11:37:05;16.40;;;13.60;;
11596;SDS011;5854;48.072;16.286;2023-02-28T11:39:39;22.50;;;14.52;;
11596;SDS011;5854;48.072;16.286;2023-02-28T11:42:12;12.35;;;9.98;;
11596;SDS011;5854;48.072;16.286;2023-02-28T11:44:58;19.90;;;14.27;;
11596;SDS011;5854;48.072;16.286;2023-02-28T11:47:44;19.83;;;14.18;;
11596;SDS011;5854;48.072;16.286;2023-02-28T11:50:18;20.02;;;13.85;;
11596;SDS011;5854;48.072;16.286;2023-02-28T11:53:05;20.13;;;13.55;;
11596;SDS011;5854;48.072;16.286;2023-02-28T11:55:41;13.80;;;10.25;;
11596;SDS011;5854;48.072;16.286;2023-02-28T11:58:14;20.60;;;11.43;;
11596;SDS011;5854;48.072;16.286;2023-02-28T12:01:14;10.02;;;8.13;;
11596;SDS011;5854;48.072;16.286;2023-02-28T12:03:58;13.23;;;11.20;;
11596;SDS011;5854;48.072;16.286;2023-02-28T12:06:33;14.02;;;10.90;;
11596;SDS011;5854;48.072;16.286;2023-02-28T12:09:12;17.83;;;13.32;;
11596;SDS011;5854;48.072;16.286;2023-02-28T12:12:21;16.70;;;11.80;;
11596;SDS011;5854;48.072;16.286;2023-02-28T12:18:00;16.55;;;11.88;;
11596;SDS011;5854;48.072;16.286;2023-02-28T12:20:55;15.98;;;12.18;;
11596;SDS011;5854;48.072;16.286;2023-02-28T12:26:40;19.98;;;14.55;;
11596;SDS011;5854;48.072;16.286;2023-02-28T12:29:11;14.57;;;11.57;;
11596;SDS011;5854;48.072;16.286;2023-02-28T12:31:45;19.77;;;13.75;;
11596;SDS011;5854;48.072;16.286;2023-02-28T12:36:48;19.08;;;13.27;;
11596;SDS011;5854;48.072;16.286;2023-02-28T12:39:18;14.23;;;11.57;;
11596;SDS011;5854;48.072;16.286;2023-02-28T12:41:53;19.17;;;11.90;;
11596;SDS011;5854;48.072;16.286;2023-02-28T12:44:28;14.05;;;12.60;;
11596;SDS011;5854;48.072;16.286;2023-02-28T12:47:02;9.30;;;8.40;;
11596;SDS011;5854;48.072;16.286;2023-02-28T12:49:33;16.27;;;12.48;;
11596;SDS011;5854;48.072;16.286;2023-02-28T12:52:06;17.83;;;12.27;;
11596;SDS011;5854;48.072;16.286;2023-02-28T12:54:38;15.05;;;12.18;;
11596;SDS011;5854;48.072;16.286;2023-02-28T12:57:12;14.43;;;10.02;;
11596;SDS011;5854;48.072;16.286;2023-02-28T12:59:48;16.08;;;12.68;;
11596;SDS011;5854;48.072;16.286;2023-02-28T13:06:00;20.55;;;12.15;;
11596;SDS011;5854;48.072;16.286;2023-02-28T13:08:52;15.98;;;12.73;;
11596;SDS011;5854;48.072;16.286;2023-02-28T13:11:42;15.68;;;11.45;;
11596;SDS011;5854;48.072;16.286;2023-02-28T13:14:18;19.05;;;13.02;;
11596;SDS011;5854;48.072;16.286;2023-02-28T13:16:56;18.00;;;12.60;;
11596;SDS011;5854;48.072;16.286;2023-02-28T13:19:30;16.33;;;11.80;;
11596;SDS011;5854;48.072;16.286;2023-02-28T13:21:59;16.95;;;11.70;;
11596;SDS011;5854;48.072;16.286;2023-02-28T13:24:40;13.85;;;11.93;;
11596;SDS011;5854;48.072;16.286;2023-02-28T13:27:11;15.52;;;11.30;;
11596;SDS011;5854;48.072;16.286;2023-02-28T13:30:02;16.33;;;12.48;;
11596;SDS011;5854;48.072;16.286;2023-02-28T13:33:28;12.05;;;10.52;;
11596;SDS011;5854;48.072;16.286;2023-02-28T13:36:09;15.57;;;11.20;;
11596;SDS011;5854;48.072;16.286;2023-02-28T13:38:51;13.30;;;10.13;;
11596;SDS011;5854;48.072;16.286;2023-02-28T13:41:45;13.88;;;10.73;;
11596;SDS011;5854;48.072;16.286;2023-02-28T13:44:14;12.70;;;10.48;;
11596;SDS011;5854;48.072;16.286;2023-02-28T13:49:50;10.23;;;9.23;;
11596;SDS011;5854;48.072;16.286;2023-02-28T13:52:20;16.05;;;11.02;;
11596;SDS011;5854;48.072;16.286;2023-02-28T13:54:55;14.05;;;9.18;;
11596;SDS011;5854;48.072;16.286;2023-02-28T13:57:53;9.27;;;8.38;;
11596;SDS011;5854;48.072;16.286;2023-02-28T14:00:55;12.15;;;9.02;;
11596;SDS011;5854;48.072;16.286;2023-02-28T14:03:55;9.95;;;8.30;;
11596;SDS011;5854;48.072;16.286;2023-02-28T14:06:46;11.95;;;9.15;;
11596;SDS011;5854;48.072;16.286;2023-02-28T14:09:17;17.92;;;9.20;;
11596;SDS011;5854;48.072;16.286;2023-02-28T14:11:50;10.85;;;9.75;;
11596;SDS011;5854;48.072;16.286;2023-02-28T14:17:23;11.45;;;10.02;;
11596;SDS011;5854;48.072;16.286;2023-02-28T14:19:52;14.93;;;10.75;;
11596;SDS011;5854;48.072;16.286;2023-02-28T14:22:25;16.25;;;10.50;;
11596;SDS011;5854;48.072;16.286;2023-02-28T14:25:16;17.95;;;10.55;;
11596;SDS011;5854;48.072;16.286;2023-02-28T14:27:50;8.85;;;8.07;;
11596;SDS011;5854;48.072;16.286;2023-02-28T14:30:43;16.35;;;9.00;;
11596;SDS011;5854;48.072;16.286;2023-02-28T14:33:31;12.07;;;10.65;;
11596;SDS011;5854;48.072;16.286;2023-02-28T14:36:14;13.48;;;9.52;;
11596;SDS011;5854;48.072;16.286;2023-02-28T14:38:46;14.10;;;10.75;;
11596;SDS011;5854;48.072;16.286;2023-02-28T14:41:20;12.95;;;8.07;;
11596;SDS011;5854;48.072;16.286;2023-02-28T14:43:56;11.15;;;10.05;;
11596;SDS011;5854;48.072;16.286;2023-02-28T14:46:28;13.73;;;10.45;;
11596;SDS011;5854;48.072;16.286;2023-02-28T14:49:03;14.25;;;10.65;;
11596;SDS011;5854;48.072;16.286;2023-02-28T14:51:32;11.95;;;9.70;;
11596;SDS011;5854;48.072;16.286;2023-02-28T14:54:00;11.80;;;10.70;;
11596;SDS011;5854;48.072;16.286;2023-02-28T14:56:32;11.73;;;10.25;;
11596;SDS011;5854;48.072;16.286;2023-02-28T14:59:02;18.95;;;10.73;;
11596;SDS011;5854;48.072;16.286;2023-02-28T15:01:32;8.45;;;7.63;;
11596;SDS011;5854;48.072;16.286;2023-02-28T15:04:00;9.30;;;8.32;;
11596;SDS011;5854;48.072;16.286;2023-02-28T15:06:31;9.85;;;8.40;;
11596;SDS011;5854;48.072;16.286;2023-02-28T15:09:08;14.20;;;10.18;;
11596;SDS011;5854;48.072;16.286;2023-02-28T15:11:45;11.27;;;9.05;;
11596;SDS011;5854;48.072;16.286;2023-02-28T15:14:15;9.90;;;8.88;;
11596;SDS011;5854;48.072;16.286;2023-02-28T15:16:48;16.27;;;9.68;;
11596;SDS011;5854;48.072;16.286;2023-02-28T15:19:23;12.73;;;9.32;;
11596;SDS011;5854;48.072;16.286;2023-02-28T15:21:54;9.57;;;8.60;;
11596;SDS011;5854;48.072;16.286;2023-02-28T15:24:29;10.43;;;9.18;;
11596;SDS011;5854;48.072;16.286;2023-02-28T15:27:03;12.07;;;9.18;;
11596;SDS011;5854;48.072;16.286;2023-02-28T15:29:34;12.13;;;9.10;;
11596;SDS011;5854;48.072;16.286;2023-02-28T15:32:26;13.93;;;8.70;;